sensor_id;sensor_type;location;lat;lon;timestamp;P1;durP1;ratioP1;P2;durP2;ratioP2
4186;SDS011;2107;52.306;10.484;2023-04-15T00:01:41;0.30;;;0.30;;
4186;SDS011;2107;52.306;10.484;2023-04-15T00:04:09;0.30;;;0.30;;
4186;SDS011;2107;52.306;10.484;2023-04-15T00:06:35;0.30;;;0.30;;
4186;SDS011;2107;52.306;10.484;2023-04-15T00:09:05;0.20;;;0.20;;
4186;SDS011;2107;52.306;10.484;2023-04-15T00:11:31;0.20;;;0.20;;
4186;SDS011;2107;52.306;10.484;2023-04-15T00:13:58;0.30;;;0.30;;
4186;SDS011;2107;52.306;10.484;2023-04-15T00:16:25;0.20;;;0.20;;
4186;SDS011;2107;52.306;10.484;2023-04-15T00:18:52;0.20;;;0.20;;
4186;SDS011;2107;52.306;10.484;2023-04-15T00:21:19;0.20;;;0.20;;
4186;SDS011;2107;52.306;10.484;2023-04-15T00:23:46;0.20;;;0.20;;
4186;SDS011;2107;52.306;10.484;2023-04-15T00:26:17;0.20;;;0.20;;
4186;SDS011;2107;52.306;10.484;2023-04-15T00:28:44;0.20;;;0.20;;
4186;SDS011;2107;52.306;10.484;2023-04-15T00:31:11;0.20;;;0.20;;
4186;SDS011;2107;52.306;10.484;2023-04-15T00:33:39;0.20;;;0.20;;
4186;SDS011;2107;52.306;10.484;2023-04-15T00:36:06;0.20;;;0.20;;
4186;SDS011;2107;52.306;10.484;2023-04-15T00:38:34;0.20;;;0.20;;
4186;SDS011;2107;52.306;10.484;2023-04-15T00:41:01;0.20;;;0.20;;
4186;SDS011;2107;52.306;10.484;2023-04-15T00:43:30;0.20;;;0.20;;
4186;SDS011;2107;52.306;10.484;2023-04-15T00:45:57;0.20;;;0.20;;
4186;SDS011;2107;52.306;10.484;2023-04-15T00:48:24;0.20;;;0.20;;
4186;SDS011;2107;52.306;10.484;2023-04-15T00:50:55;0.20;;;0.20;;
4186;SDS011;2107;52.306;10.484;2023-04-15T00:53:23;0.20;;;0.20;;
4186;SDS011;2107;52.306;10.484;2023-04-15T00:55:50;0.20;;;0.20;;
4186;SDS011;2107;52.306;10.484;2023-04-15T00:58:17;0.20;;;0.20;;
4186;SDS011;2107;52.306;10.484;2023-04-15T01:00:46;0.20;;;0.20;;
4186;SDS011;2107;52.306;10.484;2023-04-15T01:03:13;0.17;;;0.17;;
4186;SDS011;2107;52.306;10.484;2023-04-15T01:05:40;0.20;;;0.20;;
4186;SDS011;2107;52.306;10.484;2023-04-15T01:08:07;0.20;;;0.20;;
4186;SDS011;2107;52.306;10.484;2023-04-15T01:10:34;0.20;;;0.20;;
4186;SDS011;2107;52.306;10.484;2023-04-15T01:13:01;0.20;;;0.20;;
4186;SDS011;2107;52.306;10.484;2023-04-15T01:15:29;0.20;;;0.20;;
4186;SDS011;2107;52.306;10.484;2023-04-15T01:17:58;0.20;;;0.20;;
4186;SDS011;2107;52.306;10.484;2023-04-15T01:20:25;0.20;;;0.20;;
4186;SDS011;2107;52.306;10.484;2023-04-15T01:22:52;0.20;;;0.20;;
4186;SDS011;2107;52.306;10.484;2023-04-15T01:25:26;0.20;;;0.20;;
4186;SDS011;2107;52.306;10.484;2023-04-15T01:27:56;0.20;;;0.20;;
4186;SDS011;2107;52.306;10.484;2023-04-15T01:30:24;0.10;;;0.10;;
4186;SDS011;2107;52.306;10.484;2023-04-15T01:32:51;0.10;;;0.10;;
4186;SDS011;2107;52.306;10.484;2023-04-15T01:35:19;0.10;;;0.10;;
4186;SDS011;2107;52.306;10.484;2023-04-15T01:37:46;0.10;;;0.10;;
4186;SDS011;2107;52.306;10.484;2023-04-15T01:40:13;0.10;;;0.10;;
4186;SDS011;2107;52.306;10.484;2023-04-15T01:42:42;0.10;;;0.10;;
4186;SDS011;2107;52.306;10.484;2023-04-15T01:45:09;0.10;;;0.10;;
4186;SDS011;2107;52.306;10.484;2023-04-15T01:47:36;0.10;;;0.10;;
4186;SDS011;2107;52.306;10.484;2023-04-15T01:50:03;0.10;;;0.10;;
4186;SDS011;2107;52.306;10.484;2023-04-15T01:52:31;0.10;;;0.10;;
4186;SDS011;2107;52.306;10.484;2023-04-15T01:54:58;0.10;;;0.10;;
4186;SDS011;2107;52.306;10.484;2023-04-15T01:57:25;0.10;;;0.10;;
4186;SDS011;2107;52.306;10.484;2023-04-15T01:59:53;0.10;;;0.10;;
4186;SDS011;2107;52.306;10.484;2023-04-15T02:02:20;0.00;;;0.00;;
4186;SDS011;2107;52.306;10.484;2023-04-15T02:04:46;0.10;;;0.10;;
4186;SDS011;2107;52.306;10.484;2023-04-15T02:07:14;0.00;;;0.00;;
4186;SDS011;2107;52.306;10.484;2023-04-15T02:09:41;0.10;;;0.10;;
4186;SDS011;2107;52.306;10.484;2023-04-15T02:12:10;0.00;;;0.00;;
4186;SDS011;2107;52.306;10.484;2023-04-15T02:14:37;0.00;;;0.00;;
4186;SDS011;2107;52.306;10.484;2023-04-15T02:17:05;0.03;;;0.03;;
4186;SDS011;2107;52.306;10.484;2023-04-15T02:19:32;0.10;;;0.10;;
4186;SDS011;2107;52.306;10.484;2023-04-15T02:21:59;0.00;;;0.00;;
4186;SDS011;2107;52.306;10.484;2023-04-15T02:24:26;0.10;;;0.10;;
4186;SDS011;2107;52.306;10.484;2023-04-15T02:26:54;0.10;;;0.10;;
4186;SDS011;2107;52.306;10.484;2023-04-15T02:29:21;0.00;;;0.00;;
4186;SDS011;2107;52.306;10.484;2023-04-15T02:31:48;0.10;;;0.10;;
4186;SDS011;2107;52.306;10.484;2023-04-15T02:34:17;0.10;;;0.10;;
4186;SDS011;2107;52.306;10.484;2023-04-15T02:36:43;0.00;;;0.00;;
4186;SDS011;2107;52.306;10.484;2023-04-15T02:39:11;0.10;;;0.10;;
4186;SDS011;2107;52.306;10.484;2023-04-15T02:41:40;0.10;;;0.10;;
4186;SDS011;2107;52.306;10.484;2023-04-15T02:44:11;0.00;;;0.00;;
4186;SDS011;2107;52.306;10.484;2023-04-15T02:46:38;0.10;;;0.10;;
4186;SDS011;2107;52.306;10.484;2023-04-15T02:49:05;0.10;;;0.10;;
4186;SDS011;2107;52.306;10.484;2023-04-15T02:51:33;0.10;;;0.10;;
4186;SDS011;2107;52.306;10.484;2023-04-15T02:54:00;0.10;;;0.10;;
4186;SDS011;2107;52.306;10.484;2023-04-15T02:56:27;0.10;;;0.10;;
4186;SDS011;2107;52.306;10.484;2023-04-15T02:58:55;0.10;;;0.10;;
4186;SDS011;2107;52.306;10.484;2023-04-15T03:01:22;0.10;;;0.10;;
4186;SDS011;2107;52.306;10.484;2023-04-15T03:03:50;0.10;;;0.10;;
4186;SDS011;2107;52.306;10.484;2023-04-15T03:06:17;0.10;;;0.10;;
4186;SDS011;2107;52.306;10.484;2023-04-15T03:08:45;0.10;;;0.10;;
4186;SDS011;2107;52.306;10.484;2023-04-15T03:11:12;0.10;;;0.10;;
4186;SDS011;2107;52.306;10.484;2023-04-15T03:13:40;0.00;;;0.00;;
4186;SDS011;2107;52.306;10.484;2023-04-15T03:16:07;0.10;;;0.10;;
4186;SDS011;2107;52.306;10.484;2023-04-15T03:18:34;0.00;;;0.00;;
4186;SDS011;2107;52.306;10.484;2023-04-15T03:21:01;0.00;;;0.00;;
4186;SDS011;2107;52.306;10.484;2023-04-15T03:23:29;0.00;;;0.00;;
4186;SDS011;2107;52.306;10.484;2023-04-15T03:26:00;0.10;;;0.10;;
4186;SDS011;2107;52.306;10.484;2023-04-15T03:28:27;0.10;;;0.10;;
4186;SDS011;2107;52.306;10.484;2023-04-15T03:30:54;0.10;;;0.10;;
4186;SDS011;2107;52.306;10.484;2023-04-15T03:33:21;0.00;;;0.00;;
4186;SDS011;2107;52.306;10.484;2023-04-15T03:35:48;0.10;;;0.10;;
4186;SDS011;2107;52.306;10.484;2023-04-15T03:38:15;0.00;;;0.00;;
4186;SDS011;2107;52.306;10.484;2023-04-15T03:40:42;0.10;;;0.10;;
4186;SDS011;2107;52.306;10.484;2023-04-15T03:43:10;0.00;;;0.00;;
4186;SDS011;2107;52.306;10.484;2023-04-15T03:45:37;0.00;;;0.00;;
4186;SDS011;2107;52.306;10.484;2023-04-15T03:48:04;0.00;;;0.00;;
4186;SDS011;2107;52.306;10.484;2023-04-15T03:50:31;0.00;;;0.00;;
4186;SDS011;2107;52.306;10.484;2023-04-15T03:52:58;0.00;;;0.00;;
4186;SDS011;2107;52.306;10.484;2023-04-15T03:55:25;0.00;;;0.00;;
4186;SDS011;2107;52.306;10.484;2023-04-15T03:57:51;0.00;;;0.00;;
4186;SDS011;2107;52.306;10.484;2023-04-15T04:00:20;0.00;;;0.00;;
4186;SDS011;2107;52.306;10.484;2023-04-15T04:02:46;0.00;;;0.00;;
4186;SDS011;2107;52.306;10.484;2023-04-15T04:05:13;0.00;;;0.00;;
4186;SDS011;2107;52.306;10.484;2023-04-15T04:07:40;0.00;;;0.00;;
4186;SDS011;2107;52.306;10.484;2023-04-15T04:10:07;0.00;;;0.00;;
4186;SDS011;2107;52.306;10.484;2023-04-15T04:12:35;0.00;;;0.00;;
4186;SDS011;2107;52.306;10.484;2023-04-15T04:15:02;0.00;;;0.00;;
4186;SDS011;2107;52.306;10.484;2023-04-15T04:17:30;0.00;;;0.00;;
4186;SDS011;2107;52.306;10.484;2023-04-15T04:19:57;0.00;;;0.00;;
4186;SDS011;2107;52.306;10.484;2023-04-15T04:22:24;0.00;;;0.00;;
4186;SDS011;2107;52.306;10.484;2023-04-15T04:24:51;0.00;;;0.00;;
4186;SDS011;2107;52.306;10.484;2023-04-15T04:27:17;0.00;;;0.00;;
4186;SDS011;2107;52.306;10.484;2023-04-15T04:29:44;0.00;;;0.00;;
4186;SDS011;2107;52.306;10.484;2023-04-15T04:32:13;0.00;;;0.00;;
4186;SDS011;2107;52.306;10.484;2023-04-15T04:34:42;0.00;;;0.00;;
4186;SDS011;2107;52.306;10.484;2023-04-15T04:37:08;0.00;;;0.00;;
4186;SDS011;2107;52.306;10.484;2023-04-15T04:39:35;0.00;;;0.00;;
4186;SDS011;2107;52.306;10.484;2023-04-15T04:42:02;0.00;;;0.00;;
4186;SDS011;2107;52.306;10.484;2023-04-15T04:44:29;0.00;;;0.00;;
4186;SDS011;2107;52.306;10.484;2023-04-15T04:46:56;0.00;;;0.00;;
4186;SDS011;2107;52.306;10.484;2023-04-15T04:49:23;0.00;;;0.00;;
4186;SDS011;2107;52.306;10.484;2023-04-15T04:51:51;0.00;;;0.00;;
4186;SDS011;2107;52.306;10.484;2023-04-15T04:54:18;0.00;;;0.00;;
4186;SDS011;2107;52.306;10.484;2023-04-15T04:56:45;0.00;;;0.00;;
4186;SDS011;2107;52.306;10.484;2023-04-15T04:59:12;0.00;;;0.00;;
4186;SDS011;2107;52.306;10.484;2023-04-15T05:01:39;0.00;;;0.00;;
4186;SDS011;2107;52.306;10.484;2023-04-15T05:04:06;0.00;;;0.00;;
4186;SDS011;2107;52.306;10.484;2023-04-15T05:06:32;0.00;;;0.00;;
4186;SDS011;2107;52.306;10.484;2023-04-15T05:09:02;0.00;;;0.00;;
4186;SDS011;2107;52.306;10.484;2023-04-15T05:11:29;0.00;;;0.00;;
4186;SDS011;2107;52.306;10.484;2023-04-15T05:13:55;0.00;;;0.00;;
4186;SDS011;2107;52.306;10.484;2023-04-15T05:16:23;0.00;;;0.00;;
4186;SDS011;2107;52.306;10.484;2023-04-15T05:18:51;0.00;;;0.00;;
4186;SDS011;2107;52.306;10.484;2023-04-15T05:21:17;0.00;;;0.00;;
4186;SDS011;2107;52.306;10.484;2023-04-15T05:23:44;0.00;;;0.00;;
4186;SDS011;2107;52.306;10.484;2023-04-15T05:26:13;0.00;;;0.00;;
4186;SDS011;2107;52.306;10.484;2023-04-15T05:28:40;0.00;;;0.00;;
4186;SDS011;2107;52.306;10.484;2023-04-15T05:31:06;0.00;;;0.00;;
4186;SDS011;2107;52.306;10.484;2023-04-15T05:33:33;0.00;;;0.00;;
4186;SDS011;2107;52.306;10.484;2023-04-15T05:36:00;0.00;;;0.00;;
4186;SDS011;2107;52.306;10.484;2023-04-15T05:38:27;0.00;;;0.00;;
4186;SDS011;2107;52.306;10.484;2023-04-15T05:40:54;0.00;;;0.00;;
4186;SDS011;2107;52.306;10.484;2023-04-15T05:43:22;0.00;;;0.00;;
4186;SDS011;2107;52.306;10.484;2023-04-15T05:45:49;0.00;;;0.00;;
4186;SDS011;2107;52.306;10.484;2023-04-15T05:48:16;0.00;;;0.00;;
4186;SDS011;2107;52.306;10.484;2023-04-15T05:50:43;0.00;;;0.00;;
4186;SDS011;2107;52.306;10.484;2023-04-15T05:53:10;0.00;;;0.00;;
4186;SDS011;2107;52.306;10.484;2023-04-15T05:55:37;0.00;;;0.00;;
4186;SDS011;2107;52.306;10.484;2023-04-15T05:58:04;0.00;;;0.00;;
4186;SDS011;2107;52.306;10.484;2023-04-15T06:00:32;0.00;;;0.00;;
4186;SDS011;2107;52.306;10.484;2023-04-15T06:02:59;0.00;;;0.00;;
4186;SDS011;2107;52.306;10.484;2023-04-15T06:05:26;0.00;;;0.00;;
4186;SDS011;2107;52.306;10.484;2023-04-15T06:07:52;0.00;;;0.00;;
4186;SDS011;2107;52.306;10.484;2023-04-15T06:10:19;0.00;;;0.00;;
4186;SDS011;2107;52.306;10.484;2023-04-15T06:12:46;0.00;;;0.00;;
4186;SDS011;2107;52.306;10.484;2023-04-15T06:15:13;0.00;;;0.00;;
4186;SDS011;2107;52.306;10.484;2023-04-15T06:17:42;0.00;;;0.00;;
4186;SDS011;2107;52.306;10.484;2023-04-15T06:20:09;0.00;;;0.00;;
4186;SDS011;2107;52.306;10.484;2023-04-15T06:22:37;0.00;;;0.00;;
4186;SDS011;2107;52.306;10.484;2023-04-15T06:25:04;0.00;;;0.00;;
4186;SDS011;2107;52.306;10.484;2023-04-15T06:27:32;0.00;;;0.00;;
4186;SDS011;2107;52.306;10.484;2023-04-15T06:29:59;0.00;;;0.00;;
4186;SDS011;2107;52.306;10.484;2023-04-15T06:32:25;0.00;;;0.00;;
4186;SDS011;2107;52.306;10.484;2023-04-15T06:34:54;0.00;;;0.00;;
4186;SDS011;2107;52.306;10.484;2023-04-15T06:37:20;0.00;;;0.00;;
4186;SDS011;2107;52.306;10.484;2023-04-15T06:39:47;0.00;;;0.00;;
4186;SDS011;2107;52.306;10.484;2023-04-15T06:42:14;0.00;;;0.00;;
4186;SDS011;2107;52.306;10.484;2023-04-15T06:44:41;0.00;;;0.00;;
4186;SDS011;2107;52.306;10.484;2023-04-15T06:47:08;0.00;;;0.00;;
4186;SDS011;2107;52.306;10.484;2023-04-15T06:49:37;0.00;;;0.00;;
4186;SDS011;2107;52.306;10.484;2023-04-15T06:52:05;0.00;;;0.00;;
4186;SDS011;2107;52.306;10.484;2023-04-15T06:54:32;0.00;;;0.00;;
4186;SDS011;2107;52.306;10.484;2023-04-15T06:56:59;0.00;;;0.00;;
4186;SDS011;2107;52.306;10.484;2023-04-15T06:59:26;0.00;;;0.00;;
4186;SDS011;2107;52.306;10.484;2023-04-15T07:01:53;0.00;;;0.00;;
4186;SDS011;2107;52.306;10.484;2023-04-15T07:04:20;0.00;;;0.00;;
4186;SDS011;2107;52.306;10.484;2023-04-15T07:06:47;0.00;;;0.00;;
4186;SDS011;2107;52.306;10.484;2023-04-15T07:09:15;0.00;;;0.00;;
4186;SDS011;2107;52.306;10.484;2023-04-15T07:11:42;0.00;;;0.00;;
4186;SDS011;2107;52.306;10.484;2023-04-15T07:14:09;0.00;;;0.00;;
4186;SDS011;2107;52.306;10.484;2023-04-15T07:16:35;0.00;;;0.00;;
4186;SDS011;2107;52.306;10.484;2023-04-15T07:19:02;0.00;;;0.00;;
4186;SDS011;2107;52.306;10.484;2023-04-15T07:21:29;0.00;;;0.00;;
4186;SDS011;2107;52.306;10.484;2023-04-15T07:23:56;0.00;;;0.00;;
4186;SDS011;2107;52.306;10.484;2023-04-15T07:26:25;0.00;;;0.00;;
4186;SDS011;2107;52.306;10.484;2023-04-15T07:28:52;0.00;;;0.00;;
4186;SDS011;2107;52.306;10.484;2023-04-15T07:31:18;0.00;;;0.00;;
4186;SDS011;2107;52.306;10.484;2023-04-15T07:33:46;0.00;;;0.00;;
4186;SDS011;2107;52.306;10.484;2023-04-15T07:36:12;0.00;;;0.00;;
4186;SDS011;2107;52.306;10.484;2023-04-15T07:38:40;0.00;;;0.00;;
4186;SDS011;2107;52.306;10.484;2023-04-15T07:41:07;0.00;;;0.00;;
4186;SDS011;2107;52.306;10.484;2023-04-15T07:43:36;0.00;;;0.00;;
4186;SDS011;2107;52.306;10.484;2023-04-15T07:46:03;0.00;;;0.00;;
4186;SDS011;2107;52.306;10.484;2023-04-15T07:48:30;0.00;;;0.00;;
4186;SDS011;2107;52.306;10.484;2023-04-15T07:50:57;0.00;;;0.00;;
4186;SDS011;2107;52.306;10.484;2023-04-15T07:53:24;0.00;;;0.00;;
4186;SDS011;2107;52.306;10.484;2023-04-15T07:55:51;0.00;;;0.00;;
4186;SDS011;2107;52.306;10.484;2023-04-15T07:58:18;0.00;;;0.00;;
4186;SDS011;2107;52.306;10.484;2023-04-15T08:00:46;0.00;;;0.00;;
4186;SDS011;2107;52.306;10.484;2023-04-15T08:03:13;0.00;;;0.00;;
4186;SDS011;2107;52.306;10.484;2023-04-15T08:05:40;0.00;;;0.00;;
4186;SDS011;2107;52.306;10.484;2023-04-15T08:08:07;0.00;;;0.00;;
4186;SDS011;2107;52.306;10.484;2023-04-15T08:10:34;0.00;;;0.00;;
4186;SDS011;2107;52.306;10.484;2023-04-15T08:13:01;0.00;;;0.00;;
4186;SDS011;2107;52.306;10.484;2023-04-15T08:15:28;0.00;;;0.00;;
4186;SDS011;2107;52.306;10.484;2023-04-15T08:17:58;0.00;;;0.00;;
4186;SDS011;2107;52.306;10.484;2023-04-15T08:20:25;0.00;;;0.00;;
4186;SDS011;2107;52.306;10.484;2023-04-15T08:22:52;0.00;;;0.00;;
4186;SDS011;2107;52.306;10.484;2023-04-15T08:25:19;0.00;;;0.00;;
4186;SDS011;2107;52.306;10.484;2023-04-15T08:27:46;0.00;;;0.00;;
4186;SDS011;2107;52.306;10.484;2023-04-15T08:30:13;0.00;;;0.00;;
4186;SDS011;2107;52.306;10.484;2023-04-15T08:32:40;0.00;;;0.00;;
4186;SDS011;2107;52.306;10.484;2023-04-15T08:35:09;0.00;;;0.00;;
4186;SDS011;2107;52.306;10.484;2023-04-15T08:37:36;0.00;;;0.00;;
4186;SDS011;2107;52.306;10.484;2023-04-15T08:40:03;0.00;;;0.00;;
4186;SDS011;2107;52.306;10.484;2023-04-15T08:42:30;0.00;;;0.00;;
4186;SDS011;2107;52.306;10.484;2023-04-15T08:45:02;0.00;;;0.00;;
4186;SDS011;2107;52.306;10.484;2023-04-15T08:47:30;0.00;;;0.00;;
4186;SDS011;2107;52.306;10.484;2023-04-15T08:49:58;0.00;;;0.00;;
4186;SDS011;2107;52.306;10.484;2023-04-15T08:52:30;0.00;;;0.00;;
4186;SDS011;2107;52.306;10.484;2023-04-15T08:54:57;0.00;;;0.00;;
4186;SDS011;2107;52.306;10.484;2023-04-15T08:57:27;0.00;;;0.00;;
4186;SDS011;2107;52.306;10.484;2023-04-15T08:59:54;0.00;;;0.00;;
4186;SDS011;2107;52.306;10.484;2023-04-15T09:02:22;0.00;;;0.00;;
4186;SDS011;2107;52.306;10.484;2023-04-15T09:04:49;0.00;;;0.00;;
4186;SDS011;2107;52.306;10.484;2023-04-15T09:07:16;0.00;;;0.00;;
4186;SDS011;2107;52.306;10.484;2023-04-15T09:09:45;0.00;;;0.00;;
4186;SDS011;2107;52.306;10.484;2023-04-15T09:12:13;0.00;;;0.00;;
4186;SDS011;2107;52.306;10.484;2023-04-15T09:14:41;0.00;;;0.00;;
4186;SDS011;2107;52.306;10.484;2023-04-15T09:17:09;0.00;;;0.00;;
4186;SDS011;2107;52.306;10.484;2023-04-15T09:19:36;0.00;;;0.00;;
4186;SDS011;2107;52.306;10.484;2023-04-15T09:22:03;0.00;;;0.00;;
4186;SDS011;2107;52.306;10.484;2023-04-15T09:24:34;0.00;;;0.00;;
4186;SDS011;2107;52.306;10.484;2023-04-15T09:27:04;0.00;;;0.00;;
4186;SDS011;2107;52.306;10.484;2023-04-15T09:29:32;0.00;;;0.00;;
4186;SDS011;2107;52.306;10.484;2023-04-15T09:32:08;0.10;;;0.10;;
4186;SDS011;2107;52.306;10.484;2023-04-15T09:34:36;0.10;;;0.10;;
4186;SDS011;2107;52.306;10.484;2023-04-15T09:37:03;0.10;;;0.10;;
4186;SDS011;2107;52.306;10.484;2023-04-15T09:42:20;0.10;;;0.10;;
4186;SDS011;2107;52.306;10.484;2023-04-15T09:44:49;0.10;;;0.10;;
4186;SDS011;2107;52.306;10.484;2023-04-15T09:47:26;0.10;;;0.10;;
4186;SDS011;2107;52.306;10.484;2023-04-15T09:49:54;0.10;;;0.10;;
4186;SDS011;2107;52.306;10.484;2023-04-15T09:52:21;0.20;;;0.20;;
4186;SDS011;2107;52.306;10.484;2023-04-15T09:54:50;0.20;;;0.20;;
4186;SDS011;2107;52.306;10.484;2023-04-15T09:57:21;0.27;;;0.27;;
4186;SDS011;2107;52.306;10.484;2023-04-15T09:59:48;0.30;;;0.30;;
4186;SDS011;2107;52.306;10.484;2023-04-15T10:02:16;0.40;;;0.40;;
4186;SDS011;2107;52.306;10.484;2023-04-15T10:04:45;0.40;;;0.40;;
4186;SDS011;2107;52.306;10.484;2023-04-15T10:07:14;0.60;;;0.60;;
4186;SDS011;2107;52.306;10.484;2023-04-15T10:09:44;0.60;;;0.60;;
4186;SDS011;2107;52.306;10.484;2023-04-15T10:12:12;0.60;;;0.60;;
4186;SDS011;2107;52.306;10.484;2023-04-15T10:14:43;0.70;;;0.70;;
4186;SDS011;2107;52.306;10.484;2023-04-15T10:17:13;0.60;;;0.60;;
4186;SDS011;2107;52.306;10.484;2023-04-15T10:19:47;0.70;;;0.70;;
4186;SDS011;2107;52.306;10.484;2023-04-15T10:22:18;0.80;;;0.80;;
4186;SDS011;2107;52.306;10.484;2023-04-15T10:24:45;0.70;;;0.70;;
4186;SDS011;2107;52.306;10.484;2023-04-15T10:27:14;0.70;;;0.70;;
4186;SDS011;2107;52.306;10.484;2023-04-15T10:29:43;1.00;;;1.00;;
4186;SDS011;2107;52.306;10.484;2023-04-15T10:32:12;0.90;;;0.90;;
4186;SDS011;2107;52.306;10.484;2023-04-15T10:34:40;1.00;;;1.00;;
4186;SDS011;2107;52.306;10.484;2023-04-15T10:37:08;0.90;;;0.90;;
4186;SDS011;2107;52.306;10.484;2023-04-15T10:39:42;1.10;;;1.10;;
4186;SDS011;2107;52.306;10.484;2023-04-15T10:42:09;1.10;;;1.10;;
4186;SDS011;2107;52.306;10.484;2023-04-15T10:44:37;1.10;;;1.10;;
4186;SDS011;2107;52.306;10.484;2023-04-15T10:47:08;1.13;;;1.13;;
4186;SDS011;2107;52.306;10.484;2023-04-15T10:49:42;1.20;;;1.20;;
4186;SDS011;2107;52.306;10.484;2023-04-15T10:52:10;1.30;;;1.30;;
4186;SDS011;2107;52.306;10.484;2023-04-15T10:54:37;1.20;;;1.20;;
4186;SDS011;2107;52.306;10.484;2023-04-15T10:57:15;0.90;;;0.90;;
4186;SDS011;2107;52.306;10.484;2023-04-15T11:00:01;1.00;;;1.00;;
4186;SDS011;2107;52.306;10.484;2023-04-15T11:02:41;0.90;;;0.90;;
4186;SDS011;2107;52.306;10.484;2023-04-15T11:05:11;1.03;;;1.03;;
4186;SDS011;2107;52.306;10.484;2023-04-15T11:07:40;0.90;;;0.90;;
4186;SDS011;2107;52.306;10.484;2023-04-15T11:13:19;0.60;;;0.60;;
4186;SDS011;2107;52.306;10.484;2023-04-15T11:15:49;0.60;;;0.60;;
4186;SDS011;2107;52.306;10.484;2023-04-15T11:18:19;0.60;;;0.60;;
4186;SDS011;2107;52.306;10.484;2023-04-15T11:20:48;0.40;;;0.40;;
4186;SDS011;2107;52.306;10.484;2023-04-15T11:23:16;0.40;;;0.40;;
4186;SDS011;2107;52.306;10.484;2023-04-15T11:25:44;0.40;;;0.40;;
4186;SDS011;2107;52.306;10.484;2023-04-15T11:28:11;0.40;;;0.40;;
4186;SDS011;2107;52.306;10.484;2023-04-15T11:30:39;0.40;;;0.40;;
4186;SDS011;2107;52.306;10.484;2023-04-15T11:33:08;0.37;;;0.37;;
4186;SDS011;2107;52.306;10.484;2023-04-15T11:35:39;0.43;;;0.43;;
4186;SDS011;2107;52.306;10.484;2023-04-15T11:38:07;0.40;;;0.40;;
4186;SDS011;2107;52.306;10.484;2023-04-15T11:40:36;0.60;;;0.60;;
4186;SDS011;2107;52.306;10.484;2023-04-15T11:43:05;0.50;;;0.50;;
4186;SDS011;2107;52.306;10.484;2023-04-15T11:45:33;0.60;;;0.60;;
4186;SDS011;2107;52.306;10.484;2023-04-15T11:48:06;0.40;;;0.40;;
4186;SDS011;2107;52.306;10.484;2023-04-15T11:50:36;0.40;;;0.40;;
4186;SDS011;2107;52.306;10.484;2023-04-15T11:53:06;0.40;;;0.40;;
4186;SDS011;2107;52.306;10.484;2023-04-15T11:55:41;0.40;;;0.40;;
4186;SDS011;2107;52.306;10.484;2023-04-15T11:58:11;0.40;;;0.40;;
4186;SDS011;2107;52.306;10.484;2023-04-15T12:00:39;0.40;;;0.40;;
4186;SDS011;2107;52.306;10.484;2023-04-15T12:03:16;0.40;;;0.40;;
4186;SDS011;2107;52.306;10.484;2023-04-15T12:11:37;0.50;;;0.50;;
4186;SDS011;2107;52.306;10.484;2023-04-15T12:14:08;0.50;;;0.50;;
4186;SDS011;2107;52.306;10.484;2023-04-15T12:16:37;0.40;;;0.40;;
4186;SDS011;2107;52.306;10.484;2023-04-15T12:19:08;0.40;;;0.40;;
4186;SDS011;2107;52.306;10.484;2023-04-15T12:21:36;0.30;;;0.30;;
4186;SDS011;2107;52.306;10.484;2023-04-15T12:24:07;0.40;;;0.40;;
4186;SDS011;2107;52.306;10.484;2023-04-15T12:26:36;0.30;;;0.30;;
4186;SDS011;2107;52.306;10.484;2023-04-15T12:29:09;0.20;;;0.20;;
4186;SDS011;2107;52.306;10.484;2023-04-15T12:31:45;0.30;;;0.30;;
4186;SDS011;2107;52.306;10.484;2023-04-15T12:34:14;0.40;;;0.40;;
4186;SDS011;2107;52.306;10.484;2023-04-15T12:36:41;0.50;;;0.50;;
4186;SDS011;2107;52.306;10.484;2023-04-15T12:39:09;0.70;;;0.70;;
4186;SDS011;2107;52.306;10.484;2023-04-15T12:41:37;0.70;;;0.70;;
4186;SDS011;2107;52.306;10.484;2023-04-15T12:44:05;0.90;;;0.90;;
4186;SDS011;2107;52.306;10.484;2023-04-15T12:46:32;0.90;;;0.90;;
4186;SDS011;2107;52.306;10.484;2023-04-15T12:48:59;1.10;;;1.10;;
4186;SDS011;2107;52.306;10.484;2023-04-15T12:51:28;1.00;;;1.00;;
4186;SDS011;2107;52.306;10.484;2023-04-15T12:53:56;1.10;;;1.10;;
4186;SDS011;2107;52.306;10.484;2023-04-15T12:56:25;1.30;;;1.30;;
4186;SDS011;2107;52.306;10.484;2023-04-15T12:58:52;1.30;;;1.30;;
4186;SDS011;2107;52.306;10.484;2023-04-15T13:01:19;1.47;;;1.47;;
4186;SDS011;2107;52.306;10.484;2023-04-15T13:03:46;1.50;;;1.50;;
4186;SDS011;2107;52.306;10.484;2023-04-15T13:06:14;1.60;;;1.60;;
4186;SDS011;2107;52.306;10.484;2023-04-15T13:08:41;1.20;;;1.20;;
4186;SDS011;2107;52.306;10.484;2023-04-15T13:11:09;1.10;;;1.10;;
4186;SDS011;2107;52.306;10.484;2023-04-15T13:13:37;0.90;;;0.90;;
4186;SDS011;2107;52.306;10.484;2023-04-15T13:16:04;0.57;;;0.57;;
4186;SDS011;2107;52.306;10.484;2023-04-15T13:18:32;0.70;;;0.70;;
4186;SDS011;2107;52.306;10.484;2023-04-15T13:21:00;0.30;;;0.30;;
4186;SDS011;2107;52.306;10.484;2023-04-15T13:23:27;0.40;;;0.40;;
4186;SDS011;2107;52.306;10.484;2023-04-15T13:25:54;0.40;;;0.40;;
4186;SDS011;2107;52.306;10.484;2023-04-15T13:28:22;0.40;;;0.40;;
4186;SDS011;2107;52.306;10.484;2023-04-15T13:30:50;0.40;;;0.40;;
4186;SDS011;2107;52.306;10.484;2023-04-15T13:33:17;0.40;;;0.40;;
4186;SDS011;2107;52.306;10.484;2023-04-15T13:35:45;0.40;;;0.40;;
4186;SDS011;2107;52.306;10.484;2023-04-15T13:38:12;0.70;;;0.70;;
4186;SDS011;2107;52.306;10.484;2023-04-15T13:40:39;0.40;;;0.40;;
4186;SDS011;2107;52.306;10.484;2023-04-15T13:43:06;0.20;;;0.20;;
4186;SDS011;2107;52.306;10.484;2023-04-15T13:45:33;0.47;;;0.47;;
4186;SDS011;2107;52.306;10.484;2023-04-15T13:48:02;0.50;;;0.50;;
4186;SDS011;2107;52.306;10.484;2023-04-15T13:50:29;0.40;;;0.40;;
4186;SDS011;2107;52.306;10.484;2023-04-15T13:52:56;0.50;;;0.50;;
4186;SDS011;2107;52.306;10.484;2023-04-15T13:55:23;0.87;;;0.87;;
4186;SDS011;2107;52.306;10.484;2023-04-15T13:57:51;0.90;;;0.90;;
4186;SDS011;2107;52.306;10.484;2023-04-15T14:00:18;0.90;;;0.90;;
4186;SDS011;2107;52.306;10.484;2023-04-15T14:02:45;1.00;;;1.00;;
4186;SDS011;2107;52.306;10.484;2023-04-15T14:05:13;1.10;;;1.10;;
4186;SDS011;2107;52.306;10.484;2023-04-15T14:07:40;1.00;;;1.00;;
4186;SDS011;2107;52.306;10.484;2023-04-15T14:10:07;1.10;;;1.10;;
4186;SDS011;2107;52.306;10.484;2023-04-15T14:12:35;1.00;;;1.00;;
4186;SDS011;2107;52.306;10.484;2023-04-15T14:15:03;0.73;;;0.73;;
4186;SDS011;2107;52.306;10.484;2023-04-15T14:17:32;0.80;;;0.80;;
4186;SDS011;2107;52.306;10.484;2023-04-15T14:19:59;0.60;;;0.60;;
4186;SDS011;2107;52.306;10.484;2023-04-15T14:22:29;0.70;;;0.70;;
4186;SDS011;2107;52.306;10.484;2023-04-15T14:24:56;0.90;;;0.90;;
4186;SDS011;2107;52.306;10.484;2023-04-15T14:27:25;1.10;;;1.10;;
4186;SDS011;2107;52.306;10.484;2023-04-15T14:29:52;1.10;;;1.10;;
4186;SDS011;2107;52.306;10.484;2023-04-15T14:32:19;1.10;;;1.10;;
4186;SDS011;2107;52.306;10.484;2023-04-15T14:34:46;0.90;;;0.90;;
4186;SDS011;2107;52.306;10.484;2023-04-15T14:37:13;1.00;;;1.00;;
4186;SDS011;2107;52.306;10.484;2023-04-15T14:39:42;1.10;;;1.10;;
4186;SDS011;2107;52.306;10.484;2023-04-15T14:42:09;0.70;;;0.70;;
4186;SDS011;2107;52.306;10.484;2023-04-15T14:44:36;0.60;;;0.60;;
4186;SDS011;2107;52.306;10.484;2023-04-15T14:47:03;0.60;;;0.60;;
4186;SDS011;2107;52.306;10.484;2023-04-15T14:49:31;0.50;;;0.50;;
4186;SDS011;2107;52.306;10.484;2023-04-15T14:51:58;0.70;;;0.70;;
4186;SDS011;2107;52.306;10.484;2023-04-15T14:54:25;0.80;;;0.80;;
4186;SDS011;2107;52.306;10.484;2023-04-15T14:56:53;0.70;;;0.70;;
4186;SDS011;2107;52.306;10.484;2023-04-15T14:59:21;0.70;;;0.70;;
4186;SDS011;2107;52.306;10.484;2023-04-15T15:01:48;0.50;;;0.50;;
4186;SDS011;2107;52.306;10.484;2023-04-15T15:04:15;0.50;;;0.50;;
4186;SDS011;2107;52.306;10.484;2023-04-15T15:06:42;0.50;;;0.50;;
4186;SDS011;2107;52.306;10.484;2023-04-15T15:09:09;0.50;;;0.50;;
4186;SDS011;2107;52.306;10.484;2023-04-15T15:11:36;0.60;;;0.60;;
4186;SDS011;2107;52.306;10.484;2023-04-15T15:14:04;0.73;;;0.73;;
4186;SDS011;2107;52.306;10.484;2023-04-15T15:16:31;0.40;;;0.40;;